createdAt,value
2019-04-25T02:18:30.263Z,4.18
2019-04-25T02:21:06.535Z,4.13
2019-04-25T02:23:44.150Z,4.07
2019-04-25T02:30:29.763Z,4.00
2019-04-25T03:11:11.793Z,3.93
2019-04-25T03:13:47.017Z,3.93
2019-04-25T03:58:15.307Z,2.86
2019-04-25T04:04:35.862Z,2.85
2019-04-25T04:07:37.807Z,2.94
2019-04-25T04:42:53.943Z,2.47
2019-04-25T04:45:45.030Z,2.65
2019-04-25T04:48:54.061Z,2.73
2019-04-25T04:51:29.715Z,2.79
2019-04-25T04:54:10.960Z,2.72
2019-04-25T04:56:53.613Z,2.69
2019-04-25T04:59:39.078Z,2.65
2019-04-25T05:02:35.491Z,2.95
2019-04-25T05:05:48.054Z,2.93
2019-04-25T05:08:34.460Z,2.88
2019-04-25T05:11:15.809Z,3.03
2019-04-25T05:13:54.212Z,2.85
2019-04-25T05:16:27.656Z,2.70
2019-04-25T05:19:03.962Z,2.92
2019-04-25T05:21:48.581Z,3.00
2019-04-25T05:24:21.866Z,3.22
2019-04-25T05:26:56.388Z,3.13
2019-04-25T05:29:33.980Z,3.18
2019-04-25T05:32:15.859Z,3.24
2019-04-25T05:34:53.363Z,3.30
2019-04-25T05:37:37.531Z,3.45
2019-04-25T05:40:18.313Z,3.68
2019-04-25T05:43:25.872Z,3.93
2019-04-25T05:50:05.253Z,4.52
2019-04-25T05:52:40.456Z,4.98
2019-04-25T05:55:16.308Z,5.23
2019-04-25T05:57:53.586Z,5.34
2019-04-25T06:00:29.014Z,5.46
2019-04-25T06:03:04.846Z,5.57
2019-04-25T06:05:49.839Z,5.60
2019-04-25T06:08:25.443Z,5.83
2019-04-25T06:11:35.596Z,6.05
2019-04-25T06:14:13.507Z,6.24
2019-04-25T06:16:53.626Z,6.22
2019-04-25T06:19:53.367Z,6.27
2019-04-25T06:22:43.476Z,6.46
2019-04-25T06:25:23.375Z,6.89
2019-04-25T06:27:59.482Z,6.97
2019-04-25T06:30:36.170Z,7.13
2019-04-25T06:33:09.423Z,7.40
2019-04-25T06:35:44.199Z,7.78
2019-04-25T06:38:24.899Z,7.81
2019-04-25T06:40:57.669Z,8.04
2019-04-25T06:43:34.089Z,8.05
2019-04-25T06:46:34.620Z,8.46
2019-04-25T06:49:36.388Z,8.73
2019-04-25T06:52:08.011Z,9.07
2019-04-25T06:54:48.024Z,9.26
2019-04-25T07:28:24.300Z,14.74
2019-04-25T07:31:09.369Z,15.23
2019-04-25T07:34:08.573Z,15.03
2019-04-25T07:36:45.652Z,15.27
2019-04-25T07:39:20.607Z,15.23
2019-04-25T07:41:55.252Z,16.15
2019-04-25T07:44:42.863Z,16.47
2019-04-25T07:47:04.024Z,16.95
2019-04-25T07:49:37.848Z,16.66
2019-04-25T07:52:12.049Z,16.65
2019-04-25T07:54:59.078Z,17.31
2019-04-25T07:57:34.431Z,16.23
2019-04-25T08:00:16.062Z,16.69
2019-04-25T08:02:54.944Z,16.65
2019-04-25T08:05:53.342Z,17.43
2019-04-25T08:08:25.257Z,18.15
2019-04-25T08:11:04.742Z,18.21
2019-04-25T08:14:16.069Z,18.26
2019-04-25T08:17:04.955Z,18.73
2019-04-25T08:19:41.384Z,19.20
2019-04-25T08:22:18.098Z,19.22
2019-04-25T08:25:11.651Z,19.88
2019-04-25T08:27:45.139Z,19.91
2019-04-25T08:30:43.529Z,19.53
2019-04-25T08:33:14.979Z,19.28
2019-04-25T08:36:03.631Z,18.71
2019-04-25T08:38:23.919Z,19.05
2019-04-25T08:41:00.127Z,19.13
2019-04-25T08:43:39.159Z,19.90
2019-04-25T08:46:25.326Z,19.87
2019-04-25T08:49:14.810Z,19.28
2019-04-25T08:51:58.617Z,20.05
2019-04-25T08:55:04.213Z,19.69
2019-04-25T08:58:08.744Z,20.13
2019-04-25T09:01:11.642Z,20.49
2019-04-25T09:03:53.886Z,20.54
2019-04-25T09:06:26.481Z,20.41
2019-04-25T09:09:07.097Z,19.95
2019-04-25T09:11:50.547Z,20.54
2019-04-25T09:14:44.696Z,20.74
2019-04-25T09:17:18.951Z,21.82
2019-04-25T09:19:55.742Z,21.39
2019-04-25T09:22:35.266Z,20.54
2019-04-25T09:25:11.398Z,20.75
2019-04-25T09:28:11.891Z,20.73
2019-04-25T09:30:44.845Z,20.83
2019-04-25T09:33:24.337Z,21.22
2019-04-25T09:35:59.536Z,20.53
2019-04-25T09:38:36.084Z,21.11
2019-04-25T09:41:10.192Z,20.97
2019-04-25T09:43:45.295Z,21.46
2019-04-25T09:46:24.743Z,21.79
2019-04-25T09:49:27.197Z,22.04
2019-04-25T09:52:08.482Z,23.09
2019-04-25T09:55:00.588Z,23.13
2019-04-25T09:57:50.850Z,22.52
2019-04-25T10:00:38.977Z,21.83
2019-04-25T10:03:13.534Z,22.44
2019-04-25T10:05:47.419Z,23.39
2019-04-25T10:08:20.466Z,24.04
2019-04-25T10:10:53.854Z,25.01
2019-04-25T10:13:28.066Z,24.94
2019-04-25T10:16:07.615Z,24.93
2019-04-25T10:18:41.330Z,25.14
2019-04-25T10:21:14.904Z,25.57
2019-04-25T10:23:48.254Z,26.17
2019-04-25T10:26:23.619Z,25.47
2019-04-25T10:28:55.823Z,26.07
2019-04-25T10:31:29.039Z,25.84
2019-04-25T10:34:03.792Z,25.66
2019-04-25T10:36:38.774Z,26.05
2019-04-25T10:39:11.378Z,26.38
2019-04-25T10:41:46.484Z,26.08
2019-04-25T10:44:18.921Z,26.55
2019-04-25T10:46:52.934Z,26.17
2019-04-25T10:49:29.560Z,26.72
2019-04-25T10:52:02.640Z,26.65
2019-04-25T10:54:35.227Z,27.36
2019-04-25T10:57:08.435Z,27.84
2019-04-25T10:59:54.431Z,27.94
2019-04-25T11:02:16.461Z,27.18
2019-04-25T11:04:54.617Z,26.87
2019-04-25T11:07:28.713Z,26.12
2019-04-25T11:10:03.541Z,26.70
2019-04-25T11:12:35.946Z,27.42
2019-04-25T11:15:09.680Z,27.27
2019-04-25T11:17:45.809Z,27.50
2019-04-25T11:20:33.810Z,27.07
2019-04-25T11:23:07.037Z,27.48
2019-04-25T11:25:40.614Z,27.59
2019-04-25T11:28:14.642Z,27.48
2019-04-25T11:30:49.579Z,27.24
2019-04-25T11:33:24.706Z,27.57
2019-04-25T11:35:57.097Z,28.44
2019-04-25T11:38:59.383Z,28.03
2019-04-25T11:41:32.055Z,27.83
2019-04-25T11:44:05.540Z,27.09
2019-04-25T11:46:39.383Z,27.70
2019-04-25T11:49:13.127Z,27.08
2019-04-25T11:51:48.188Z,28.24
2019-04-25T11:54:21.131Z,27.77
2019-04-25T11:56:54.730Z,27.40
2019-04-25T11:59:28.792Z,27.62
2019-04-25T12:02:01.826Z,27.81
2019-04-25T12:04:34.811Z,27.73
2019-04-25T12:07:08.592Z,27.31
2019-04-25T12:09:43.158Z,27.42
2019-04-25T12:12:17.082Z,27.63
2019-04-25T12:14:49.585Z,26.76
2019-04-25T12:17:23.394Z,26.35
2019-04-25T12:19:56.252Z,26.77
2019-04-25T12:22:29.394Z,26.08
2019-04-25T12:25:02.283Z,26.16
2019-04-25T12:27:35.243Z,26.10
2019-04-25T12:30:09.348Z,26.51
2019-04-25T12:32:44.069Z,27.00
2019-04-25T12:35:17.028Z,27.76
2019-04-25T12:37:50.023Z,28.22
2019-04-25T12:40:24.164Z,28.35
2019-04-25T12:42:57.157Z,28.69
2019-04-25T12:45:43.302Z,28.69
2019-04-25T12:48:16.042Z,28.47
2019-04-25T12:50:50.015Z,28.03
2019-04-25T12:53:23.594Z,29.03
2019-04-25T12:55:56.470Z,29.07
2019-04-25T12:58:29.737Z,29.41
2019-04-25T13:01:04.296Z,29.37
2019-04-25T13:03:37.288Z,28.52
2019-04-25T13:06:10.226Z,27.37
2019-04-25T13:08:44.062Z,27.76
2019-04-25T13:11:17.100Z,28.07
2019-04-25T13:13:49.994Z,27.66
2019-04-25T13:16:24.315Z,26.93
2019-04-25T13:19:09.166Z,26.28
2019-04-25T13:21:33.337Z,25.08
2019-04-25T13:24:06.520Z,24.88
2019-04-25T13:26:45.876Z,24.27
2019-04-25T13:29:36.078Z,25.45
2019-04-25T13:32:30.964Z,25.12
2019-04-25T13:35:09.913Z,24.62
2019-04-25T13:37:43.920Z,24.00
2019-04-25T13:40:18.488Z,24.44
2019-04-25T13:42:53.134Z,24.70
2019-04-25T13:45:26.574Z,24.39
2019-04-25T13:47:59.447Z,24.49
2019-04-25T13:50:33.988Z,24.85
2019-04-25T13:53:07.280Z,24.80
2019-04-25T13:55:41.496Z,24.57
2019-04-25T13:58:14.664Z,24.54
2019-04-25T14:00:48.367Z,24.94
2019-04-25T14:03:23.020Z,24.25
2019-04-25T14:05:55.878Z,24.05
2019-04-25T14:08:29.391Z,24.44
2019-04-25T14:11:04.975Z,24.54
2019-04-25T14:13:37.392Z,23.88
2019-04-25T14:16:25.718Z,23.75
2019-04-25T14:19:31.167Z,23.29
2019-04-25T14:22:08.304Z,23.03
2019-04-25T14:24:41.194Z,22.59
2019-04-25T14:27:14.300Z,22.31
2019-04-25T14:29:47.219Z,22.18
2019-04-25T14:32:21.435Z,22.14
2019-04-25T14:34:55.214Z,22.26
2019-04-25T14:37:31.771Z,22.36
2019-04-25T14:40:04.076Z,22.27
2019-04-25T14:42:36.982Z,21.81
2019-04-25T14:45:10.494Z,20.85
2019-04-25T14:47:43.799Z,20.51
2019-04-25T14:50:16.826Z,20.03
2019-04-25T14:52:49.673Z,19.72
2019-04-25T14:55:39.807Z,19.64
2019-04-25T14:58:15.106Z,19.30
2019-04-25T15:00:49.693Z,19.67
2019-04-25T15:03:23.118Z,19.70
2019-04-25T15:05:56.841Z,19.42
2019-04-25T15:08:30.779Z,18.98
2019-04-25T15:11:04.373Z,19.03
2019-04-25T15:13:37.320Z,19.40
2019-04-25T15:16:10.211Z,19.64
2019-04-25T15:18:46.891Z,19.70
2019-04-25T15:21:18.806Z,19.61
2019-04-25T15:24:00.040Z,21.09
2019-04-25T15:26:26.837Z,22.49
2019-04-25T15:28:59.799Z,23.29
2019-04-25T15:31:32.688Z,21.85
2019-04-25T15:34:05.650Z,21.87
2019-04-25T15:36:44.389Z,22.47
2019-04-25T15:39:42.687Z,22.87
2019-04-25T15:42:34.480Z,22.16
2019-04-25T15:45:29.487Z,22.53
2019-04-25T15:48:03.101Z,21.66
2019-04-25T15:50:36.014Z,22.07
2019-04-25T15:53:08.968Z,21.43
2019-04-25T15:55:41.817Z,21.62
2019-04-25T15:58:14.755Z,20.94
2019-04-25T16:00:47.699Z,21.35
2019-04-25T16:03:20.610Z,20.00
2019-04-25T16:05:53.516Z,18.66
2019-04-25T16:08:26.624Z,18.42
2019-04-25T16:11:00.518Z,19.15
2019-04-25T16:13:34.447Z,20.22
2019-04-25T16:16:07.211Z,20.82
2019-04-25T16:18:41.140Z,21.03
2019-04-25T16:21:14.507Z,20.50
2019-04-25T16:23:47.362Z,19.64
2019-04-25T16:26:20.216Z,19.35
2019-04-25T16:28:53.116Z,19.02
2019-04-25T16:31:28.921Z,18.45
2019-04-25T16:34:01.436Z,18.03
2019-04-25T16:36:34.231Z,17.51
2019-04-25T16:39:09.650Z,16.91
2019-04-25T16:41:42.641Z,16.51
2019-04-25T16:44:17.791Z,16.26
2019-04-25T16:46:50.859Z,15.84
2019-04-25T16:49:23.642Z,15.50
2019-04-25T16:51:56.584Z,14.93
2019-04-25T16:54:30.411Z,14.63
2019-04-25T16:57:03.370Z,14.24
2019-04-25T16:59:36.435Z,14.01
2019-04-25T17:02:09.505Z,13.92
2019-04-25T17:04:43.428Z,13.77
2019-04-25T17:07:16.373Z,13.80
2019-04-25T17:09:49.425Z,13.77
2019-04-25T17:12:22.291Z,13.78
2019-04-25T17:15:23.131Z,13.51
2019-04-25T17:18:06.481Z,13.41
2019-04-25T17:20:44.150Z,13.30
2019-04-25T17:23:17.088Z,13.16
2019-04-25T17:25:50.415Z,13.13
2019-04-25T17:28:24.922Z,13.12
2019-04-25T17:31:08.730Z,13.03
2019-04-25T17:33:51.077Z,12.87
2019-04-25T17:36:36.044Z,12.89
2019-04-25T17:39:25.248Z,12.78
2019-04-25T17:41:58.073Z,12.72
2019-04-25T17:44:31.652Z,12.36
2019-04-25T17:47:06.334Z,11.85
2019-04-25T17:49:39.572Z,11.64
2019-04-25T17:52:12.642Z,11.49
2019-04-25T17:54:45.610Z,11.15
2019-04-25T17:57:18.722Z,11.07
2019-04-25T17:59:51.513Z,10.80
2019-04-25T18:02:24.485Z,10.62
2019-04-25T18:04:57.330Z,10.47
2019-04-25T18:07:30.168Z,10.43
2019-04-25T18:10:03.232Z,10.22
2019-04-25T18:12:36.122Z,10.13
2019-04-25T18:15:11.145Z,10.01
2019-04-25T18:17:44.518Z,10.05
2019-04-25T18:20:20.964Z,9.97
2019-04-25T18:23:07.438Z,9.95
2019-04-25T18:26:02.171Z,9.91
2019-04-25T18:28:41.816Z,9.81
2019-04-25T18:31:14.837Z,9.83
2019-04-25T18:33:49.474Z,9.70
2019-04-25T18:36:41.298Z,9.69
2019-04-25T18:39:31.544Z,9.67
2019-04-25T18:42:14.965Z,9.74
2019-04-25T18:44:47.930Z,9.60
2019-04-25T18:47:20.835Z,9.31
2019-04-25T18:49:53.907Z,9.45
2019-04-25T18:53:33.648Z,9.39
2019-04-25T18:56:25.517Z,9.18
2019-04-25T18:59:22.978Z,9.10
2019-04-25T19:02:17.750Z,9.10
2019-04-25T19:05:09.416Z,8.93
2019-04-25T19:07:43.104Z,8.91
2019-04-25T19:10:16.115Z,8.85
2019-04-25T19:12:49.047Z,8.81
2019-04-25T19:15:22.635Z,8.58
2019-04-25T19:17:55.370Z,8.55
2019-04-25T19:20:28.377Z,8.47
2019-04-25T19:23:01.311Z,8.47
2019-04-25T19:25:34.256Z,8.44
2019-04-25T19:28:06.800Z,8.45
2019-04-25T19:30:39.891Z,8.38
2019-04-25T19:33:13.983Z,8.36
2019-04-25T19:35:47.712Z,8.25
2019-04-25T19:38:20.611Z,8.21
2019-04-25T19:40:59.629Z,8.28
2019-04-25T19:43:57.054Z,8.16
2019-04-25T19:46:41.489Z,8.19
2019-04-25T19:49:14.852Z,8.13
2019-04-25T19:51:49.414Z,8.12
2019-04-25T19:54:22.262Z,8.07
2019-04-25T19:56:56.440Z,8.19
2019-04-25T19:59:29.466Z,8.17
2019-04-25T20:02:07.089Z,8.16
2019-04-25T20:04:51.458Z,8.12
2019-04-25T20:07:43.884Z,8.04
2019-04-25T20:10:39.105Z,8.06
2019-04-25T20:13:11.853Z,8.03
2019-04-25T20:15:45.504Z,8.05
2019-04-25T20:18:18.320Z,8.03
2019-04-25T20:20:52.027Z,8.01
2019-04-25T20:23:25.005Z,8.05
2019-04-25T20:25:58.020Z,7.99
2019-04-25T20:28:31.014Z,7.94
2019-04-25T20:31:03.965Z,7.90
2019-04-25T20:33:37.014Z,7.85
2019-04-25T20:36:17.516Z,7.94
2019-04-25T20:38:44.824Z,7.97
2019-04-25T20:41:18.612Z,7.91
2019-04-25T20:43:51.546Z,7.88
2019-04-25T20:46:24.365Z,7.94
2019-04-25T20:48:57.305Z,7.88
2019-04-25T20:51:29.910Z,7.83
2019-04-25T20:54:02.970Z,7.81
2019-04-25T20:56:36.847Z,7.72
2019-04-25T20:59:09.547Z,7.64
2019-04-25T21:01:41.830Z,7.59
2019-04-25T21:04:31.362Z,7.69
2019-04-25T21:07:04.270Z,7.68
2019-04-25T21:09:38.512Z,7.48
2019-04-25T21:12:12.637Z,7.38
2019-04-25T21:15:10.662Z,7.24
2019-04-25T21:18:08.555Z,7.08
2019-04-25T21:20:41.666Z,7.10
2019-04-25T21:23:13.985Z,6.97
2019-04-25T21:25:46.919Z,7.04
2019-04-25T21:28:19.950Z,7.12
2019-04-25T21:30:52.737Z,6.96
2019-04-25T21:33:27.014Z,6.94
2019-04-25T21:36:00.399Z,6.93
2019-04-25T21:38:34.441Z,6.86
2019-04-25T21:41:26.133Z,6.85
2019-04-25T21:44:03.097Z,6.95
2019-04-25T21:46:36.194Z,6.98
2019-04-25T21:49:09.266Z,7.19
2019-04-25T21:51:42.234Z,7.15
2019-04-25T21:54:15.178Z,7.08
2019-04-25T21:56:48.278Z,7.08
2019-04-25T21:59:21.429Z,7.15
2019-04-25T22:01:55.383Z,7.09
2019-04-25T22:04:38.689Z,7.10
2019-04-25T22:07:05.098Z,7.11
2019-04-25T22:09:38.335Z,7.28
2019-04-25T22:12:12.070Z,7.26
2019-04-25T22:14:45.143Z,7.34
2019-04-25T22:17:18.151Z,7.32
2019-04-25T22:19:51.577Z,7.32
2019-04-25T22:22:24.793Z,7.33
2019-04-25T22:24:58.572Z,7.30
2019-04-25T22:27:36.616Z,7.30
2019-04-25T22:30:11.009Z,7.26
2019-04-25T22:33:08.858Z,7.31
2019-04-25T22:35:50.789Z,7.29
2019-04-25T22:38:23.927Z,7.32
2019-04-25T22:40:56.787Z,7.29
2019-04-25T22:43:31.408Z,7.32
2019-04-25T22:46:04.614Z,7.38
2019-04-25T22:48:49.809Z,7.42
2019-04-25T22:51:22.784Z,7.49
2019-04-25T22:53:55.749Z,7.54
2019-04-25T22:56:28.549Z,7.40
2019-04-25T22:59:02.840Z,7.35
2019-04-25T23:01:42.725Z,7.31
2019-04-25T23:04:34.380Z,7.30
2019-04-25T23:07:08.022Z,7.27
2019-04-25T23:09:40.622Z,7.28
2019-04-25T23:12:14.153Z,7.30
2019-04-25T23:14:47.551Z,7.39
2019-04-25T23:17:20.226Z,7.30
2019-04-25T23:19:53.416Z,7.40
2019-04-25T23:22:26.419Z,7.40
2019-04-25T23:25:05.946Z,7.37
2019-04-25T23:27:45.213Z,7.39
2019-04-25T23:30:20.498Z,7.27
2019-04-25T23:32:53.469Z,7.38
2019-04-25T23:35:29.527Z,7.42
2019-04-25T23:38:01.206Z,7.34
2019-04-25T23:40:34.146Z,7.36
2019-04-25T23:43:07.524Z,7.33
2019-04-25T23:45:39.520Z,7.27
2019-04-25T23:48:12.555Z,7.23
2019-04-25T23:50:45.540Z,7.20
2019-04-25T23:53:18.287Z,7.19
2019-04-25T23:55:51.056Z,7.17
2019-04-25T23:58:23.781Z,7.23
